createdAt,value
2017-04-06T14:25:46.065Z,6952
2017-04-06T14:26:29.033Z,7508
2017-04-06T14:27:09.416Z,8288
2017-04-06T14:27:49.855Z,9088
2017-04-06T14:28:30.239Z,9948
2017-04-06T14:29:10.825Z,9048
2017-04-06T14:29:51.212Z,8760
2017-04-06T14:30:31.831Z,8948
2017-04-06T14:31:12.153Z,9108
2017-04-06T14:31:52.564Z,9072
2017-04-06T14:32:32.938Z,8880
2017-04-06T14:33:13.347Z,8524
2017-04-06T14:33:53.782Z,8100
2017-04-06T14:34:34.181Z,8248
2017-04-06T14:35:14.999Z,8308
2017-04-06T14:35:56.462Z,8128
2017-04-06T14:36:41.091Z,8688
2017-04-06T14:37:21.666Z,8512
2017-04-06T14:38:02.108Z,9244
2017-04-06T14:38:42.552Z,9264
2017-04-06T14:39:22.922Z,9368
2017-04-06T14:40:03.378Z,9324
2017-04-06T14:40:44.237Z,9000
2017-04-06T14:41:24.709Z,8560
2017-04-06T14:42:05.142Z,8032
2017-04-06T14:42:46.492Z,7596
2017-04-06T14:43:27.457Z,7424
2017-04-06T14:44:07.898Z,7448
2017-04-06T14:44:48.447Z,7120
2017-04-06T14:45:28.922Z,6720
2017-04-06T14:46:09.338Z,6380
2017-04-06T14:46:50.670Z,6276
2017-04-06T14:47:30.846Z,6444
2017-04-06T14:48:11.203Z,6912
2017-04-06T14:48:51.784Z,7556
2017-04-06T14:49:32.447Z,7968
2017-04-06T14:50:13.053Z,8188
2017-04-06T14:50:55.056Z,8272
2017-04-06T14:51:35.461Z,8196
2017-04-06T14:52:15.933Z,7944
2017-04-06T14:52:56.653Z,7348
2017-04-06T14:53:37.149Z,7328
2017-04-06T14:54:17.654Z,7488
2017-04-06T14:54:57.995Z,7700
2017-04-06T14:55:38.449Z,8232
2017-04-06T14:56:18.932Z,8640
2017-04-06T14:56:59.319Z,8376
2017-04-06T14:57:39.846Z,9112
2017-04-06T14:58:20.206Z,9064
2017-04-06T14:59:00.638Z,8608
2017-04-06T14:59:41.032Z,8492
2017-04-06T15:00:21.437Z,8228
2017-04-06T15:01:02.106Z,7816
2017-04-06T15:01:42.757Z,7656
2017-04-06T15:02:23.143Z,7712
2017-04-06T15:04:28.274Z,6020
2017-04-06T15:05:17.016Z,5484
2017-04-06T15:06:05.111Z,5828
2017-04-06T15:06:53.894Z,5508
2017-04-06T15:07:42.417Z,4900
2017-04-06T15:08:31.066Z,4572
2017-04-06T15:09:18.250Z,4276
2017-04-06T15:10:04.351Z,4296
2017-04-06T15:10:44.817Z,4444
2017-04-06T15:11:25.310Z,4672
2017-04-06T15:12:05.740Z,4772
2017-04-06T15:12:46.150Z,4852
2017-04-06T15:13:26.493Z,5100
2017-04-06T15:14:06.928Z,4964
2017-04-06T15:14:47.339Z,5040
2017-04-06T15:15:27.830Z,5040
2017-04-06T15:16:08.263Z,5068
2017-04-06T15:16:48.674Z,5104
2017-04-06T15:17:30.018Z,5224
2017-04-06T15:18:10.426Z,5276
2017-04-06T15:18:50.911Z,5064
2017-04-06T15:19:31.308Z,4680
2017-04-06T15:20:11.711Z,4336
2017-04-06T15:20:52.109Z,4008
2017-04-06T15:21:32.540Z,3772
2017-04-06T15:22:13.003Z,3608
2017-04-06T15:22:53.380Z,3560
2017-04-06T15:23:33.781Z,4008
2017-04-06T15:24:14.211Z,3876
2017-04-06T15:24:54.638Z,3544
2017-04-06T15:25:35.048Z,3968
2017-04-06T15:26:15.450Z,4012
2017-04-06T15:26:55.818Z,4060
2017-04-06T15:27:36.269Z,4248
2017-04-06T15:28:16.650Z,4340
2017-04-06T15:28:57.074Z,4400
2017-04-06T15:29:37.480Z,4436
2017-04-06T15:30:17.990Z,4508
2017-04-06T15:30:58.531Z,4832
2017-04-06T15:31:39.009Z,5072
2017-04-06T15:32:19.426Z,4952
2017-04-06T15:32:59.853Z,4760
2017-04-06T15:33:40.225Z,4636
2017-04-06T15:34:20.729Z,4588
2017-04-06T15:35:01.060Z,4492
2017-04-06T15:35:41.518Z,4536
2017-04-06T15:36:21.949Z,4476
2017-04-06T15:37:02.288Z,4404
2017-04-06T15:37:42.748Z,4384
2017-04-06T15:40:07.966Z,4492
2017-04-06T15:40:56.897Z,4372
2017-04-06T15:41:45.339Z,4288
2017-04-06T15:42:33.771Z,4164
2017-04-06T15:43:22.354Z,4132
2017-04-06T15:44:10.852Z,4140
2017-04-06T15:44:59.716Z,4136
2017-04-06T15:45:48.365Z,4112
2017-04-06T15:46:37.360Z,4196
2017-04-06T15:47:26.781Z,4260
2017-04-06T15:48:15.526Z,4244
2017-04-06T15:49:03.888Z,4188
2017-04-06T15:49:52.829Z,4096
2017-04-06T15:50:43.308Z,3996
2017-04-06T15:51:29.850Z,3924
2017-04-06T15:52:21.069Z,3876
2017-04-06T15:53:10.219Z,3824
2017-04-06T15:53:58.305Z,3740
2017-04-06T15:54:47.128Z,3664
2017-04-06T15:55:35.815Z,3352
2017-04-06T15:56:24.800Z,3416
2017-04-06T15:57:14.354Z,3384
2017-04-06T15:58:02.848Z,3136
2017-04-06T15:58:51.497Z,3100
2017-04-06T15:59:40.240Z,3176
2017-04-06T16:00:28.778Z,3324
2017-04-06T16:01:17.547Z,3036
2017-04-06T16:02:10.751Z,3008
2017-04-06T16:03:10.154Z,3288
2017-04-06T19:17:12.756Z,0
2017-04-06T19:17:56.268Z,0
2017-04-06T19:18:40.171Z,0
2017-04-06T19:19:25.414Z,0
2017-04-06T19:20:08.555Z,0
2017-04-06T19:20:56.097Z,0
2017-04-06T19:21:40.260Z,0
2017-04-06T19:22:22.423Z,0
2017-04-06T19:23:08.190Z,0
2017-04-06T19:23:49.582Z,0
2017-04-06T19:24:30.140Z,0
2017-04-06T19:25:14.430Z,0
2017-04-06T19:25:55.967Z,0
2017-04-06T19:26:41.194Z,0
2017-04-06T19:27:24.932Z,0
2017-04-06T19:28:06.926Z,0
2017-04-06T19:28:53.496Z,0
2017-04-06T19:29:37.609Z,0
2017-04-06T19:30:25.694Z,0
2017-04-06T19:31:12.274Z,0
2017-04-06T19:32:09.382Z,0
2017-04-06T19:33:03.659Z,0
2017-04-06T19:34:01.768Z,0
2017-04-06T19:36:37.728Z,0
2017-04-06T19:37:26.197Z,0
2017-04-06T19:38:16.483Z,0
2017-04-06T19:39:00.650Z,0
2017-04-06T19:39:41.166Z,0
2017-04-06T19:40:23.124Z,0
2017-04-06T19:41:06.723Z,0
2017-04-06T19:44:50.630Z,0
2017-04-06T19:51:16.956Z,0
2017-04-06T19:52:08.310Z,0
2017-04-06T19:53:02.675Z,0
2017-04-06T19:54:02.171Z,0
2017-04-06T19:54:52.347Z,0
2017-04-06T19:55:52.815Z,0
2017-04-06T19:58:27.678Z,0
2017-04-06T19:59:10.350Z,0
2017-04-06T19:59:53.937Z,0
2017-04-06T20:00:38.114Z,0
2017-04-06T20:01:21.986Z,0
2017-04-06T20:02:10.000Z,0
2017-04-06T20:02:54.241Z,0
2017-04-06T20:03:39.574Z,0
2017-04-06T20:04:24.678Z,0
2017-04-06T20:05:08.192Z,0
2017-04-06T20:05:51.442Z,0
2017-04-06T20:06:31.515Z,0
2017-04-06T20:07:25.337Z,0
2017-04-06T20:08:17.732Z,0
2017-04-06T20:09:02.521Z,0
2017-04-06T20:09:55.216Z,0
2017-04-06T20:10:35.706Z,0
2017-04-06T20:11:21.933Z,0
2017-04-06T20:12:27.564Z,0
2017-04-06T20:13:38.687Z,0
2017-04-06T20:14:19.540Z,0
2017-04-06T20:15:00.168Z,0
2017-04-06T20:15:41.108Z,0
2017-04-06T20:16:25.269Z,0
2017-04-06T20:17:09.557Z,0
2017-04-06T20:17:51.506Z,0
2017-04-06T20:18:34.636Z,0
2017-04-06T20:19:18.776Z,0
2017-04-06T20:20:07.424Z,0
2017-04-06T20:20:54.792Z,0
2017-04-06T20:21:39.893Z,0
2017-04-06T20:22:27.264Z,0
2017-04-06T20:25:07.346Z,0
2017-04-06T20:27:42.971Z,0
2017-04-06T20:28:33.894Z,0
2017-04-06T20:29:22.046Z,0
2017-04-06T20:30:12.156Z,0
2017-04-06T20:36:54.573Z,0
2017-04-06T20:37:43.197Z,0
2017-04-06T20:38:32.436Z,0
2017-04-06T20:39:21.503Z,0
2017-04-06T20:40:10.825Z,0
2017-04-06T20:40:59.808Z,0
2017-04-06T20:41:48.575Z,0
2017-04-06T20:44:41.989Z,0
2017-04-06T20:45:41.845Z,0
2017-04-06T20:46:33.538Z,0
2017-04-06T20:49:25.704Z,0
2017-04-06T20:50:14.696Z,0
2017-04-06T20:51:02.885Z,0
2017-04-06T20:51:51.745Z,0
2017-04-06T20:52:40.235Z,0
2017-04-06T20:53:29.728Z,0
2017-04-06T20:54:18.214Z,0
2017-04-06T20:55:06.935Z,0
2017-04-06T20:55:55.682Z,0
2017-04-06T20:56:44.420Z,0
2017-04-06T20:57:33.360Z,0
2017-04-06T20:58:22.279Z,0
2017-04-06T20:59:12.205Z,0
2017-04-06T21:00:01.719Z,0
2017-04-06T21:00:52.162Z,0
